createdAt,value
2018-12-30T00:00:36.460Z,19.12
2018-12-30T00:03:18.166Z,17.92
2018-12-30T00:05:59.533Z,18.42
2018-12-30T00:08:41.153Z,13.27
2018-12-30T00:11:21.791Z,15.40
2018-12-30T00:14:03.122Z,8.00
2018-12-30T00:16:44.601Z,14.33
2018-12-30T00:19:26.134Z,14.43
2018-12-30T00:22:07.544Z,13.40
2018-12-30T00:24:48.830Z,12.28
2018-12-30T00:27:30.453Z,14.23
2018-12-30T00:30:11.164Z,12.82
2018-12-30T00:32:51.851Z,9.98
2018-12-30T00:35:32.540Z,9.43
2018-12-30T00:38:13.373Z,12.37
2018-12-30T00:40:54.886Z,13.27
2018-12-30T00:43:36.314Z,7.08
2018-12-30T00:46:17.228Z,12.20
2018-12-30T00:48:58.223Z,8.98
2018-12-30T00:51:39.213Z,11.95
2018-12-30T00:54:20.526Z,8.70
2018-12-30T00:57:01.270Z,9.88
2018-12-30T00:59:41.959Z,11.18
2018-12-30T01:02:23.571Z,11.78
2018-12-30T01:05:04.978Z,8.97
2018-12-30T01:07:46.489Z,11.85
2018-12-30T01:10:27.458Z,10.65
2018-12-30T01:13:08.126Z,7.58
2018-12-30T01:15:49.540Z,9.85
2018-12-30T01:18:31.131Z,10.35
2018-12-30T01:21:12.007Z,10.20
2018-12-30T01:23:52.633Z,6.15
2018-12-30T01:26:34.042Z,10.55
2018-12-30T01:29:15.658Z,5.67
2018-12-30T01:31:57.067Z,10.45
2018-12-30T01:34:37.829Z,10.53
2018-12-30T01:37:18.622Z,7.20
2018-12-30T01:40:00.257Z,10.58
2018-12-30T01:42:41.820Z,8.53
2018-12-30T01:45:23.413Z,9.05
2018-12-30T01:48:04.694Z,5.50
2018-12-30T01:50:45.382Z,7.90
2018-12-30T01:53:26.133Z,9.40
2018-12-30T01:56:07.720Z,9.57
2018-12-30T01:58:49.202Z,10.70
2018-12-30T02:01:30.634Z,9.10
2018-12-30T02:04:11.394Z,9.87
2018-12-30T02:06:53.070Z,8.13
2018-12-30T02:09:33.722Z,9.77
2018-12-30T02:12:14.350Z,10.03
2018-12-30T02:14:55.750Z,9.37
2018-12-30T02:17:36.422Z,9.73
2018-12-30T02:20:17.904Z,7.65
2018-12-30T02:22:59.347Z,10.00
2018-12-30T02:25:40.981Z,8.63
2018-12-30T02:28:22.481Z,9.60
2018-12-30T02:31:03.137Z,10.00
2018-12-30T02:33:44.614Z,9.27
2018-12-30T02:36:25.508Z,10.70
2018-12-30T02:39:06.409Z,9.00
2018-12-30T02:41:47.502Z,11.25
2018-12-30T02:44:28.873Z,10.20
2018-12-30T02:47:10.521Z,6.12
2018-12-30T02:49:51.961Z,5.05
2018-12-30T02:52:32.770Z,10.47
2018-12-30T02:55:14.333Z,5.60
2018-12-30T02:57:55.996Z,9.53
2018-12-30T03:00:37.342Z,8.17
2018-12-30T03:03:18.354Z,8.00
2018-12-30T03:05:59.075Z,6.42
2018-12-30T03:08:39.785Z,8.30
2018-12-30T03:11:20.406Z,7.72
2018-12-30T03:14:02.006Z,8.28
2018-12-30T03:16:42.712Z,7.35
2018-12-30T03:19:24.200Z,8.90
2018-12-30T03:22:05.274Z,8.25
2018-12-30T03:24:46.597Z,8.10
2018-12-30T03:27:27.273Z,7.45
2018-12-30T03:30:08.139Z,7.87
2018-12-30T03:32:49.706Z,9.55
2018-12-30T03:35:30.329Z,8.25
2018-12-30T03:38:11.790Z,8.10
2018-12-30T03:40:53.212Z,8.13
2018-12-30T03:43:34.022Z,8.28
2018-12-30T03:46:15.185Z,9.93
2018-12-30T03:48:56.035Z,8.40
2018-12-30T03:51:36.755Z,3.77
2018-12-30T03:54:18.402Z,9.05
2018-12-30T03:56:59.943Z,10.18
2018-12-30T03:59:41.489Z,9.55
2018-12-30T04:02:22.196Z,6.00
2018-12-30T04:05:04.382Z,10.70
2018-12-30T04:07:45.297Z,9.47
2018-12-30T04:10:27.015Z,10.03
2018-12-30T04:13:07.833Z,9.20
2018-12-30T04:15:48.748Z,9.00
2018-12-30T04:18:29.471Z,7.03
2018-12-30T04:21:10.108Z,8.65
2018-12-30T04:23:51.601Z,9.63
2018-12-30T04:26:33.111Z,9.25
2018-12-30T04:29:14.683Z,9.87
2018-12-30T04:31:55.329Z,9.55
2018-12-30T04:34:36.221Z,10.00
2018-12-30T04:37:17.628Z,10.57
2018-12-30T04:39:59.185Z,12.13
2018-12-30T04:42:40.461Z,10.80
2018-12-30T04:45:21.132Z,10.75
2018-12-30T04:48:02.028Z,4.60
2018-12-30T04:50:42.764Z,9.17
2018-12-30T04:53:24.158Z,10.27
2018-12-30T04:56:04.874Z,10.40
2018-12-30T04:58:45.666Z,11.93
2018-12-30T05:01:26.789Z,11.18
2018-12-30T05:04:07.522Z,9.30
2018-12-30T05:06:48.509Z,7.28
2018-12-30T05:09:29.209Z,11.00
2018-12-30T05:12:10.032Z,11.95
2018-12-30T05:14:51.668Z,8.10
2018-12-30T05:17:33.164Z,8.90
2018-12-30T05:20:14.519Z,10.83
2018-12-30T05:22:55.974Z,10.10
2018-12-30T05:25:36.689Z,11.63
2018-12-30T05:28:18.085Z,9.17
2018-12-30T05:30:58.861Z,6.83
2018-12-30T05:33:40.351Z,6.90
2018-12-30T05:36:21.140Z,7.08
2018-12-30T05:39:01.937Z,10.17
2018-12-30T05:41:43.423Z,9.08
2018-12-30T05:44:24.088Z,5.75
2018-12-30T05:47:05.706Z,10.97
2018-12-30T05:49:46.514Z,10.00
2018-12-30T05:52:27.202Z,10.30
2018-12-30T05:55:08.092Z,11.68
2018-12-30T05:57:48.703Z,9.50
2018-12-30T06:00:30.090Z,8.97
2018-12-30T06:03:11.592Z,10.57
2018-12-30T06:05:53.083Z,10.98
2018-12-30T06:08:33.795Z,14.33
2018-12-30T06:11:15.304Z,9.57
2018-12-30T06:13:56.027Z,11.30
2018-12-30T06:16:36.792Z,11.57
2018-12-30T06:19:18.275Z,12.73
2018-12-30T06:21:59.818Z,11.40
2018-12-30T06:24:40.492Z,10.48
2018-12-30T06:27:21.280Z,9.90
2018-12-30T06:30:02.677Z,7.03
2018-12-30T06:32:44.250Z,10.63
2018-12-30T06:35:25.700Z,10.70
2018-12-30T06:38:06.548Z,10.67
2018-12-30T06:40:48.082Z,10.77
2018-12-30T06:43:28.894Z,11.10
2018-12-30T06:46:09.589Z,10.00
2018-12-30T06:48:50.817Z,9.50
2018-12-30T06:51:31.429Z,7.62
2018-12-30T06:54:12.068Z,10.50
2018-12-30T06:56:52.910Z,10.43
2018-12-30T06:59:33.799Z,10.80
2018-12-30T07:02:14.707Z,10.40
2018-12-30T07:04:55.540Z,8.25
2018-12-30T07:07:37.105Z,5.70
2018-12-30T07:10:18.717Z,7.65
2018-12-30T07:12:59.428Z,9.10
2018-12-30T07:15:40.245Z,8.80
2018-12-30T07:18:21.858Z,9.70
2018-12-30T07:21:03.234Z,7.97
2018-12-30T07:23:44.812Z,7.47
2018-12-30T07:26:25.462Z,9.40
2018-12-30T07:29:06.340Z,8.47
2018-12-30T07:31:47.917Z,6.37
2018-12-30T07:34:28.582Z,8.40
2018-12-30T07:37:10.050Z,8.30
2018-12-30T07:39:51.536Z,8.75
2018-12-30T07:42:33.183Z,7.80
2018-12-30T07:45:13.886Z,8.53
2018-12-30T07:47:55.404Z,11.60
2018-12-30T07:50:36.318Z,7.78
2018-12-30T07:53:17.892Z,9.67
2018-12-30T07:55:58.602Z,7.70
2018-12-30T07:58:39.918Z,9.47
2018-12-30T08:01:21.286Z,10.40
2018-12-30T08:04:02.773Z,8.93
2018-12-30T08:06:44.374Z,9.27
2018-12-30T08:09:25.766Z,9.40
2018-12-30T08:12:06.521Z,7.53
2018-12-30T08:14:47.253Z,8.30
2018-12-30T08:17:28.866Z,7.00
2018-12-30T08:20:09.761Z,9.80
2018-12-30T08:22:52.666Z,11.60
2018-12-30T08:25:34.151Z,6.67
2018-12-30T08:28:14.923Z,7.27
2018-12-30T08:30:56.391Z,7.47
2018-12-30T08:33:39.241Z,9.20
2018-12-30T08:36:22.577Z,8.07
2018-12-30T08:39:03.593Z,9.83
2018-12-30T08:41:46.677Z,7.93
2018-12-30T08:44:29.015Z,10.30
2018-12-30T08:47:11.166Z,7.67
2018-12-30T08:49:52.988Z,8.45
2018-12-30T08:52:36.085Z,9.00
2018-12-30T08:55:18.799Z,10.90
2018-12-30T08:58:00.276Z,8.40
2018-12-30T09:00:41.993Z,9.27
2018-12-30T09:03:22.772Z,6.80
2018-12-30T09:06:04.138Z,8.93
2018-12-30T09:08:45.671Z,10.13
2018-12-30T09:11:26.967Z,9.90
2018-12-30T09:14:08.510Z,8.53
2018-12-30T09:16:49.961Z,10.20
2018-12-30T09:19:31.530Z,8.20
2018-12-30T09:22:12.275Z,8.80
2018-12-30T09:24:53.993Z,11.20
2018-12-30T09:27:35.566Z,9.70
2018-12-30T09:30:18.592Z,11.53
2018-12-30T09:32:59.362Z,10.40
2018-12-30T09:35:41.126Z,11.10
2018-12-30T09:38:22.516Z,8.17
2018-12-30T09:41:03.886Z,8.10
2018-12-30T09:43:45.133Z,6.93
2018-12-30T09:46:25.955Z,7.20
2018-12-30T09:49:07.507Z,8.50
2018-12-30T09:51:48.781Z,7.87
2018-12-30T09:54:30.077Z,7.47
2018-12-30T09:57:11.456Z,10.20
2018-12-30T09:59:52.923Z,7.47
2018-12-30T10:02:33.602Z,9.43
2018-12-30T10:05:14.340Z,9.67
2018-12-30T10:07:55.685Z,10.20
2018-12-30T10:10:36.609Z,7.67
2018-12-30T10:13:17.285Z,6.10
2018-12-30T10:16:00.037Z,9.83
2018-12-30T10:18:41.247Z,9.40
2018-12-30T10:21:22.107Z,9.33
2018-12-30T10:24:02.869Z,7.45
2018-12-30T10:26:43.626Z,9.30
2018-12-30T10:29:24.450Z,7.50
2018-12-30T10:32:05.107Z,9.07
2018-12-30T10:34:45.837Z,8.63
2018-12-30T10:37:26.619Z,9.23
2018-12-30T10:40:08.262Z,7.90
2018-12-30T10:42:49.526Z,8.57
2018-12-30T10:45:30.273Z,7.17
2018-12-30T10:48:11.693Z,8.95
2018-12-30T10:50:52.629Z,7.20
2018-12-30T10:53:34.217Z,8.45
2018-12-30T10:56:15.704Z,10.07
2018-12-30T10:58:56.372Z,8.20
2018-12-30T11:01:37.083Z,9.60
2018-12-30T11:04:18.695Z,7.97
2018-12-30T11:06:59.574Z,9.30
2018-12-30T11:09:40.307Z,8.60
2018-12-30T11:12:21.692Z,6.70
2018-12-30T11:15:03.086Z,6.67
2018-12-30T11:17:43.894Z,9.40
2018-12-30T11:20:24.586Z,6.07
2018-12-30T11:23:06.174Z,7.20
2018-12-30T11:25:47.268Z,7.57
2018-12-30T11:28:28.122Z,8.63
2018-12-30T11:31:08.982Z,8.30
2018-12-30T11:33:49.887Z,4.40
2018-12-30T11:36:31.314Z,8.40
2018-12-30T11:39:12.074Z,5.53
2018-12-30T11:41:52.745Z,8.37
2018-12-30T11:44:34.188Z,8.00
2018-12-30T11:47:14.966Z,5.07
2018-12-30T11:49:55.608Z,8.97
2018-12-30T11:52:36.337Z,9.10
2018-12-30T11:55:17.418Z,8.80
2018-12-30T11:57:58.244Z,6.10
2018-12-30T12:00:39.197Z,7.75
2018-12-30T12:03:20.063Z,9.53
2018-12-30T12:06:01.411Z,8.77
2018-12-30T12:08:42.725Z,7.90
2018-12-30T12:11:24.162Z,7.33
2018-12-30T12:14:04.845Z,7.40
2018-12-30T12:16:45.679Z,6.37
2018-12-30T12:19:28.605Z,5.90
2018-12-30T12:22:09.527Z,6.97
2018-12-30T12:24:50.426Z,6.70
2018-12-30T12:27:31.246Z,6.03
2018-12-30T12:30:12.923Z,6.30
2018-12-30T12:32:53.686Z,6.27
2018-12-30T12:35:34.495Z,6.97
2018-12-30T12:38:15.197Z,6.30
2018-12-30T12:40:55.967Z,7.00
2018-12-30T12:43:37.582Z,6.00
2018-12-30T12:46:18.987Z,7.10
2018-12-30T12:48:59.965Z,7.50
2018-12-30T12:51:40.864Z,7.37
2018-12-30T12:54:21.764Z,5.97
2018-12-30T12:57:03.361Z,5.80
2018-12-30T12:59:44.173Z,6.17
2018-12-30T13:02:24.890Z,6.90
2018-12-30T13:05:06.383Z,5.43
2018-12-30T13:07:47.194Z,7.10
2018-12-30T13:10:27.814Z,6.50
2018-12-30T13:13:08.687Z,6.53
2018-12-30T13:15:50.080Z,6.37
2018-12-30T13:18:30.732Z,5.60
2018-12-30T13:21:11.899Z,7.00
2018-12-30T13:23:52.733Z,3.17
2018-12-30T13:26:34.146Z,6.60
2018-12-30T13:29:15.253Z,5.60
2018-12-30T13:31:56.716Z,5.70
2018-12-30T13:34:38.161Z,6.47
2018-12-30T13:37:19.628Z,5.30
2018-12-30T13:40:00.597Z,6.37
2018-12-30T13:42:42.169Z,6.17
2018-12-30T13:45:23.625Z,6.23
2018-12-30T13:48:05.133Z,6.27
2018-12-30T13:50:46.733Z,5.70
2018-12-30T13:53:27.360Z,4.53
2018-12-30T13:56:08.075Z,5.73
2018-12-30T13:58:48.770Z,6.50
2018-12-30T14:01:30.197Z,6.27
2018-12-30T14:04:11.654Z,7.70
2018-12-30T14:06:53.222Z,5.90
2018-12-30T14:09:34.182Z,6.03
2018-12-30T14:12:15.550Z,6.37
2018-12-30T14:14:57.176Z,5.10
2018-12-30T14:17:38.765Z,5.30
2018-12-30T14:20:19.476Z,6.47
2018-12-30T14:23:00.609Z,6.23
2018-12-30T14:25:41.455Z,6.47
2018-12-30T14:28:22.131Z,6.13
2018-12-30T14:31:02.968Z,4.83
2018-12-30T14:33:44.121Z,5.53
2018-12-30T14:36:25.517Z,6.10
2018-12-30T14:39:07.006Z,5.20
2018-12-30T14:41:47.904Z,6.27
2018-12-30T14:44:28.599Z,6.17
2018-12-30T14:47:10.078Z,3.23
2018-12-30T14:49:50.832Z,6.53
2018-12-30T14:52:31.533Z,6.40
2018-12-30T14:55:12.943Z,6.30
2018-12-30T14:57:53.722Z,5.87
2018-12-30T15:00:34.393Z,6.00
2018-12-30T15:03:15.825Z,5.47
2018-12-30T15:05:57.357Z,5.33
2018-12-30T15:08:38.171Z,7.50
2018-12-30T15:11:19.797Z,6.00
2018-12-30T15:14:01.185Z,6.23
2018-12-30T15:16:41.785Z,6.10
2018-12-30T15:19:22.676Z,5.67
2018-12-30T15:22:04.235Z,6.17
2018-12-30T15:24:44.883Z,5.33
2018-12-30T15:27:26.561Z,4.10
2018-12-30T15:30:07.267Z,6.10
2018-12-30T15:32:47.880Z,5.77
2018-12-30T15:35:28.752Z,6.40
2018-12-30T15:38:10.177Z,5.60
2018-12-30T15:40:50.793Z,5.50
2018-12-30T15:43:31.508Z,5.33
2018-12-30T15:46:12.121Z,4.33
2018-12-30T15:48:53.570Z,5.00
2018-12-30T15:51:35.081Z,5.20
2018-12-30T15:54:16.594Z,5.37
2018-12-30T15:56:58.219Z,5.63
2018-12-30T15:59:39.879Z,5.23
2018-12-30T16:02:21.254Z,5.03
2018-12-30T16:05:02.772Z,5.10
2018-12-30T16:07:43.467Z,5.60
2018-12-30T16:10:24.196Z,5.63
2018-12-30T16:13:05.006Z,5.10
2018-12-30T16:15:45.719Z,4.70
2018-12-30T16:18:27.155Z,6.33
2018-12-30T16:21:08.494Z,5.43
2018-12-30T16:23:49.327Z,5.20
2018-12-30T16:26:30.935Z,5.43
2018-12-30T16:29:12.348Z,4.90
2018-12-30T16:31:53.296Z,5.30
2018-12-30T16:34:34.205Z,5.33
2018-12-30T16:37:15.521Z,6.20
2018-12-30T16:40:18.434Z,6.60
2018-12-30T16:42:49.386Z,5.77
2018-12-30T16:45:30.871Z,6.73
2018-12-30T16:48:12.242Z,5.40
2018-12-30T16:50:53.138Z,6.37
2018-12-30T16:53:34.681Z,5.80
2018-12-30T16:56:16.141Z,5.10
2018-12-30T16:58:56.814Z,5.23
2018-12-30T17:01:37.496Z,6.07
2018-12-30T17:04:18.389Z,6.27
2018-12-30T17:06:59.971Z,4.37
2018-12-30T17:09:41.388Z,6.30
2018-12-30T17:12:22.838Z,7.60
2018-12-30T17:15:04.458Z,6.10
2018-12-30T17:17:46.038Z,5.30
2018-12-30T17:20:27.405Z,5.77
2018-12-30T17:23:08.955Z,5.20
2018-12-30T17:25:49.683Z,5.43
2018-12-30T17:28:31.162Z,6.53
2018-12-30T17:31:12.405Z,5.90
2018-12-30T17:33:53.366Z,5.97
2018-12-30T17:36:35.069Z,7.07
2018-12-30T17:39:16.567Z,6.70
2018-12-30T17:41:57.171Z,7.27
2018-12-30T17:44:38.557Z,6.63
2018-12-30T17:47:19.806Z,6.27
2018-12-30T17:50:02.362Z,7.60
2018-12-30T17:52:43.866Z,6.50
2018-12-30T17:55:25.280Z,6.37
2018-12-30T17:58:06.678Z,6.03
2018-12-30T18:00:47.565Z,5.17
2018-12-30T18:03:29.030Z,6.20
2018-12-30T18:06:10.675Z,6.27
2018-12-30T18:08:52.301Z,5.83
2018-12-30T18:11:33.927Z,7.67
2018-12-30T18:14:15.409Z,7.43
2018-12-30T18:16:56.873Z,7.10
2018-12-30T18:19:37.614Z,7.33
2018-12-30T18:22:18.344Z,7.50
2018-12-30T18:24:59.544Z,7.87
2018-12-30T18:27:40.517Z,7.47
2018-12-30T18:30:22.455Z,8.03
2018-12-30T18:33:03.433Z,7.80
2018-12-30T18:35:45.082Z,6.57
2018-12-30T18:38:26.332Z,7.53
2018-12-30T18:41:07.102Z,7.77
2018-12-30T18:43:48.522Z,5.93
2018-12-30T18:46:29.281Z,7.13
2018-12-30T18:49:10.777Z,7.63
2018-12-30T18:51:51.497Z,8.30
2018-12-30T18:54:32.178Z,8.00
2018-12-30T18:57:13.090Z,8.83
2018-12-30T18:59:54.546Z,7.43
2018-12-30T19:02:35.358Z,7.90
2018-12-30T19:05:16.805Z,8.57
2018-12-30T19:07:58.375Z,8.37
2018-12-30T19:10:39.773Z,7.47
2018-12-30T19:13:20.408Z,7.20
2018-12-30T19:16:01.991Z,8.70
2018-12-30T19:18:43.506Z,8.90
2018-12-30T19:21:25.105Z,8.50
2018-12-30T19:24:06.677Z,7.90
2018-12-30T19:26:48.090Z,7.40
2018-12-30T19:29:28.777Z,8.27
2018-12-30T19:32:09.589Z,8.50
2018-12-30T19:34:51.109Z,7.30
2018-12-30T19:37:31.932Z,8.90
2018-12-30T19:42:56.405Z,7.77
2018-12-30T19:45:37.758Z,8.07
2018-12-30T19:48:19.314Z,8.50
2018-12-30T19:51:00.512Z,7.37
2018-12-30T19:53:43.002Z,8.00
2018-12-30T19:56:24.566Z,8.27
2018-12-30T19:59:05.329Z,8.07
2018-12-30T20:01:45.888Z,8.40
2018-12-30T20:04:26.753Z,8.13
2018-12-30T20:07:08.285Z,8.03
2018-12-30T20:09:49.800Z,8.10
2018-12-30T20:12:30.808Z,8.50
2018-12-30T20:15:11.599Z,8.63
2018-12-30T20:17:52.297Z,7.80
2018-12-30T20:20:32.983Z,8.10
2018-12-30T20:23:14.535Z,8.50
2018-12-30T20:25:55.994Z,7.93
2018-12-30T20:28:36.692Z,7.70
2018-12-30T20:31:18.169Z,8.23
2018-12-30T20:33:59.585Z,9.40
2018-12-30T20:36:40.961Z,8.63
2018-12-30T20:39:21.727Z,7.10
2018-12-30T20:42:02.495Z,7.70
2018-12-30T20:44:43.750Z,8.33
2018-12-30T20:47:24.549Z,8.30
2018-12-30T20:50:05.345Z,8.70
2018-12-30T20:52:46.134Z,6.17
2018-12-30T20:55:26.955Z,7.50
2018-12-30T20:58:07.648Z,7.50
2018-12-30T21:00:48.618Z,6.73
2018-12-30T21:03:29.601Z,6.13
2018-12-30T21:06:10.290Z,6.90
2018-12-30T21:08:50.968Z,6.77
2018-12-30T21:11:31.979Z,7.00
2018-12-30T21:14:12.831Z,6.90
2018-12-30T21:16:53.617Z,8.30
2018-12-30T21:19:34.267Z,7.80
2018-12-30T21:22:15.816Z,7.57
2018-12-30T21:24:56.794Z,6.90
2018-12-30T21:27:38.421Z,7.20
2018-12-30T21:30:19.626Z,6.40
2018-12-30T21:33:01.170Z,5.87
2018-12-30T21:35:42.648Z,6.70
2018-12-30T21:38:24.245Z,6.13
2018-12-30T21:41:05.127Z,6.17
2018-12-30T21:43:46.445Z,5.60
2018-12-30T21:46:27.334Z,7.27
2018-12-30T21:49:08.254Z,6.37
2018-12-30T21:51:49.847Z,6.93
2018-12-30T21:54:31.205Z,7.07
2018-12-30T21:57:12.757Z,7.10
2018-12-30T21:59:54.344Z,7.20
2018-12-30T22:02:35.126Z,7.30
2018-12-30T22:05:16.601Z,4.17
2018-12-30T22:07:57.333Z,6.83
2018-12-30T22:10:38.685Z,5.83
2018-12-30T22:13:19.376Z,6.00
2018-12-30T22:16:00.946Z,7.47
2018-12-30T22:18:41.741Z,6.13
2018-12-30T22:21:23.487Z,6.50
2018-12-30T22:24:04.333Z,7.57
2018-12-30T22:26:45.309Z,6.47
2018-12-30T22:29:26.748Z,5.73
2018-12-30T22:32:07.415Z,5.75
2018-12-30T22:34:48.072Z,5.40
2018-12-30T22:37:29.674Z,8.17
2018-12-30T22:40:10.618Z,6.37
2018-12-30T22:42:52.181Z,5.37
2018-12-30T22:45:33.025Z,6.07
2018-12-30T22:48:14.133Z,6.07
2018-12-30T22:50:55.641Z,6.00
2018-12-30T22:53:37.169Z,5.20
2018-12-30T22:56:18.506Z,6.07
2018-12-30T22:58:59.936Z,5.13
2018-12-30T23:01:42.814Z,6.80
2018-12-30T23:04:23.546Z,5.50
2018-12-30T23:07:04.203Z,5.27
2018-12-30T23:09:45.837Z,5.33
2018-12-30T23:15:08.848Z,5.60
2018-12-30T23:17:49.609Z,6.37
2018-12-30T23:20:31.210Z,6.30
2018-12-30T23:23:12.692Z,4.53
2018-12-30T23:25:54.131Z,5.30
2018-12-30T23:28:34.836Z,5.43
2018-12-30T23:31:16.355Z,5.07
2018-12-30T23:33:57.730Z,6.30
2018-12-30T23:36:38.498Z,6.40
2018-12-30T23:39:19.270Z,5.43
2018-12-30T23:42:00.191Z,6.37
2018-12-30T23:44:40.927Z,6.90
2018-12-30T23:47:21.725Z,6.03
2018-12-30T23:50:03.271Z,5.83
2018-12-30T23:52:44.795Z,5.70
2018-12-30T23:55:26.402Z,6.30
2018-12-30T23:58:07.274Z,6.30
